ESSD

Borlange Airport

Sweden
METAR ESSD 250050Z AUTO 21002KT 9999 NCD 14/06 Q1028
Observed Flight Rules
May-25 @ 00:50 UTC (23 minutes ago) Visual Flight Rules
Wind Visibility Clouds
210° at 2 knots 10,000+ meters
  • Clear skies
Temperatures Readings
Current 14°C / 57°F
Dewpoint 6°C / 43°F
Humidity 59%
Altimeter 30.35" Hg
Pressure 1028 hPa
Elevation 161
METAR ESSD 250050Z AUTO 21002KT 9999 NCD 14/06 Q1028
Observed Flight Rules
May-25 @ 00:50 UTC
(23 minutes ago)
VFR
Wind Visibility
210° at 2 knots 10,000+ meters
Clouds
  • Clear skies
Temperature Dewpoint
14°C / 57°F 6°C / 43°F
Humidity Altimeter Pressure
59% 30.35" Hg 1028 hPa